sensor_id;sensor_type;location;lat;lon;timestamp;P1;durP1;ratioP1;P2;durP2;ratioP2
57303;SDS011;43150;50.986;18.208;2024-03-29T00:01:16;2.20;;;0.90;;
57303;SDS011;43150;50.986;18.208;2024-03-29T00:03:41;1.60;;;0.70;;
57303;SDS011;43150;50.986;18.208;2024-03-29T00:06:08;1.60;;;0.70;;
57303;SDS011;43150;50.986;18.208;2024-03-29T00:08:33;0.60;;;0.50;;
57303;SDS011;43150;50.986;18.208;2024-03-29T00:11:00;0.70;;;0.60;;
57303;SDS011;43150;50.986;18.208;2024-03-29T00:13:25;1.90;;;0.80;;
57303;SDS011;43150;50.986;18.208;2024-03-29T00:15:51;1.70;;;1.00;;
57303;SDS011;43150;50.986;18.208;2024-03-29T00:18:16;1.90;;;0.90;;
57303;SDS011;43150;50.986;18.208;2024-03-29T00:20:42;1.30;;;0.70;;
57303;SDS011;43150;50.986;18.208;2024-03-29T00:23:07;1.90;;;0.90;;
57303;SDS011;43150;50.986;18.208;2024-03-29T00:25:34;1.90;;;0.80;;
57303;SDS011;43150;50.986;18.208;2024-03-29T00:28:00;2.40;;;1.00;;
57303;SDS011;43150;50.986;18.208;2024-03-29T00:30:26;2.90;;;1.30;;
57303;SDS011;43150;50.986;18.208;2024-03-29T00:32:52;1.10;;;0.80;;
57303;SDS011;43150;50.986;18.208;2024-03-29T00:35:17;2.60;;;1.00;;
57303;SDS011;43150;50.986;18.208;2024-03-29T00:37:44;1.50;;;1.20;;
57303;SDS011;43150;50.986;18.208;2024-03-29T00:40:10;1.40;;;1.00;;
57303;SDS011;43150;50.986;18.208;2024-03-29T00:42:35;2.30;;;1.50;;
57303;SDS011;43150;50.986;18.208;2024-03-29T00:45:01;2.50;;;1.30;;
57303;SDS011;43150;50.986;18.208;2024-03-29T00:47:26;1.20;;;0.90;;
57303;SDS011;43150;50.986;18.208;2024-03-29T00:49:52;1.40;;;1.10;;
57303;SDS011;43150;50.986;18.208;2024-03-29T00:52:17;1.70;;;1.10;;
57303;SDS011;43150;50.986;18.208;2024-03-29T00:54:43;1.70;;;0.70;;
57303;SDS011;43150;50.986;18.208;2024-03-29T00:57:08;0.90;;;0.80;;
57303;SDS011;43150;50.986;18.208;2024-03-29T00:59:38;2.30;;;1.40;;
57303;SDS011;43150;50.986;18.208;2024-03-29T01:02:04;2.50;;;0.90;;
57303;SDS011;43150;50.986;18.208;2024-03-29T01:04:29;1.80;;;1.30;;
57303;SDS011;43150;50.986;18.208;2024-03-29T01:06:55;1.50;;;1.10;;
57303;SDS011;43150;50.986;18.208;2024-03-29T01:09:21;2.00;;;1.30;;
57303;SDS011;43150;50.986;18.208;2024-03-29T01:11:47;4.30;;;1.80;;
57303;SDS011;43150;50.986;18.208;2024-03-29T01:14:12;2.30;;;1.20;;
57303;SDS011;43150;50.986;18.208;2024-03-29T01:16:38;1.50;;;1.40;;
57303;SDS011;43150;50.986;18.208;2024-03-29T01:19:03;4.00;;;1.80;;
57303;SDS011;43150;50.986;18.208;2024-03-29T01:21:30;2.40;;;1.40;;
57303;SDS011;43150;50.986;18.208;2024-03-29T01:23:55;1.20;;;0.90;;
57303;SDS011;43150;50.986;18.208;2024-03-29T01:26:21;2.30;;;1.40;;
57303;SDS011;43150;50.986;18.208;2024-03-29T01:28:46;2.40;;;1.20;;
57303;SDS011;43150;50.986;18.208;2024-03-29T01:31:12;2.70;;;1.30;;
57303;SDS011;43150;50.986;18.208;2024-03-29T01:33:40;3.50;;;1.80;;
57303;SDS011;43150;50.986;18.208;2024-03-29T01:36:06;2.80;;;1.00;;
57303;SDS011;43150;50.986;18.208;2024-03-29T01:38:33;2.80;;;1.60;;
57303;SDS011;43150;50.986;18.208;2024-03-29T01:40:58;1.30;;;1.20;;
57303;SDS011;43150;50.986;18.208;2024-03-29T01:43:24;2.80;;;1.90;;
57303;SDS011;43150;50.986;18.208;2024-03-29T01:45:50;1.90;;;1.30;;
57303;SDS011;43150;50.986;18.208;2024-03-29T01:48:18;2.00;;;1.20;;
57303;SDS011;43150;50.986;18.208;2024-03-29T01:50:44;4.20;;;1.60;;
57303;SDS011;43150;50.986;18.208;2024-03-29T01:53:10;2.00;;;1.70;;
57303;SDS011;43150;50.986;18.208;2024-03-29T01:55:36;3.40;;;1.60;;
57303;SDS011;43150;50.986;18.208;2024-03-29T01:58:02;1.90;;;1.50;;
57303;SDS011;43150;50.986;18.208;2024-03-29T02:00:28;1.30;;;1.20;;
57303;SDS011;43150;50.986;18.208;2024-03-29T02:02:54;2.30;;;1.90;;
57303;SDS011;43150;50.986;18.208;2024-03-29T02:05:19;2.50;;;1.40;;
57303;SDS011;43150;50.986;18.208;2024-03-29T02:07:45;2.40;;;1.50;;
57303;SDS011;43150;50.986;18.208;2024-03-29T02:10:14;1.60;;;1.50;;
57303;SDS011;43150;50.986;18.208;2024-03-29T02:12:40;3.40;;;2.50;;
57303;SDS011;43150;50.986;18.208;2024-03-29T02:15:05;4.20;;;2.00;;
57303;SDS011;43150;50.986;18.208;2024-03-29T02:17:34;2.60;;;1.90;;
57303;SDS011;43150;50.986;18.208;2024-03-29T02:19:59;2.30;;;2.50;;
57303;SDS011;43150;50.986;18.208;2024-03-29T02:22:25;4.40;;;2.00;;
57303;SDS011;43150;50.986;18.208;2024-03-29T02:24:53;2.00;;;1.50;;
57303;SDS011;43150;50.986;18.208;2024-03-29T02:27:19;3.30;;;1.60;;
57303;SDS011;43150;50.986;18.208;2024-03-29T02:29:45;3.40;;;1.70;;
57303;SDS011;43150;50.986;18.208;2024-03-29T02:32:10;2.40;;;1.50;;
57303;SDS011;43150;50.986;18.208;2024-03-29T02:34:36;2.80;;;1.90;;
57303;SDS011;43150;50.986;18.208;2024-03-29T02:37:01;2.40;;;1.40;;
57303;SDS011;43150;50.986;18.208;2024-03-29T02:39:27;2.30;;;1.80;;
57303;SDS011;43150;50.986;18.208;2024-03-29T02:41:52;2.20;;;1.20;;
57303;SDS011;43150;50.986;18.208;2024-03-29T02:44:18;2.70;;;1.60;;
57303;SDS011;43150;50.986;18.208;2024-03-29T02:46:46;3.50;;;1.60;;
57303;SDS011;43150;50.986;18.208;2024-03-29T02:49:11;2.30;;;1.50;;
57303;SDS011;43150;50.986;18.208;2024-03-29T02:51:37;2.30;;;1.60;;
57303;SDS011;43150;50.986;18.208;2024-03-29T02:54:02;2.50;;;1.50;;
57303;SDS011;43150;50.986;18.208;2024-03-29T02:56:28;3.80;;;1.90;;
57303;SDS011;43150;50.986;18.208;2024-03-29T02:58:54;2.60;;;1.60;;
57303;SDS011;43150;50.986;18.208;2024-03-29T03:01:20;1.80;;;1.30;;
57303;SDS011;43150;50.986;18.208;2024-03-29T03:03:45;3.70;;;1.70;;
57303;SDS011;43150;50.986;18.208;2024-03-29T03:06:11;1.90;;;1.30;;
57303;SDS011;43150;50.986;18.208;2024-03-29T03:08:36;3.20;;;1.80;;
57303;SDS011;43150;50.986;18.208;2024-03-29T03:11:20;3.50;;;1.80;;
57303;SDS011;43150;50.986;18.208;2024-03-29T03:13:46;2.50;;;1.40;;
57303;SDS011;43150;50.986;18.208;2024-03-29T03:16:11;2.80;;;1.60;;
57303;SDS011;43150;50.986;18.208;2024-03-29T03:18:37;3.40;;;1.70;;
57303;SDS011;43150;50.986;18.208;2024-03-29T03:21:02;3.60;;;1.90;;
57303;SDS011;43150;50.986;18.208;2024-03-29T03:23:28;3.20;;;1.50;;
57303;SDS011;43150;50.986;18.208;2024-03-29T03:25:54;1.90;;;1.40;;
57303;SDS011;43150;50.986;18.208;2024-03-29T03:28:20;1.90;;;1.30;;
57303;SDS011;43150;50.986;18.208;2024-03-29T03:30:47;1.30;;;0.90;;
57303;SDS011;43150;50.986;18.208;2024-03-29T03:33:12;1.50;;;1.20;;
57303;SDS011;43150;50.986;18.208;2024-03-29T03:35:37;2.40;;;1.10;;
57303;SDS011;43150;50.986;18.208;2024-03-29T03:38:03;2.10;;;1.20;;
57303;SDS011;43150;50.986;18.208;2024-03-29T03:40:28;1.00;;;0.80;;
57303;SDS011;43150;50.986;18.208;2024-03-29T03:42:54;2.80;;;1.40;;
57303;SDS011;43150;50.986;18.208;2024-03-29T03:45:20;3.10;;;1.30;;
57303;SDS011;43150;50.986;18.208;2024-03-29T03:47:45;2.50;;;1.30;;
57303;SDS011;43150;50.986;18.208;2024-03-29T03:50:10;2.50;;;1.40;;
57303;SDS011;43150;50.986;18.208;2024-03-29T03:52:36;2.00;;;1.20;;
57303;SDS011;43150;50.986;18.208;2024-03-29T03:55:05;3.90;;;1.20;;
57303;SDS011;43150;50.986;18.208;2024-03-29T03:57:30;1.60;;;1.00;;
57303;SDS011;43150;50.986;18.208;2024-03-29T03:59:56;1.30;;;1.10;;
57303;SDS011;43150;50.986;18.208;2024-03-29T04:02:21;1.70;;;1.10;;
57303;SDS011;43150;50.986;18.208;2024-03-29T04:04:47;1.60;;;1.00;;
57303;SDS011;43150;50.986;18.208;2024-03-29T04:07:13;4.70;;;1.90;;
57303;SDS011;43150;50.986;18.208;2024-03-29T04:09:38;4.80;;;1.70;;
57303;SDS011;43150;50.986;18.208;2024-03-29T04:12:04;4.30;;;2.00;;
57303;SDS011;43150;50.986;18.208;2024-03-29T04:14:29;4.80;;;2.10;;
57303;SDS011;43150;50.986;18.208;2024-03-29T04:16:55;2.70;;;1.50;;
57303;SDS011;43150;50.986;18.208;2024-03-29T04:19:20;2.30;;;1.40;;
57303;SDS011;43150;50.986;18.208;2024-03-29T04:21:46;3.00;;;1.90;;
57303;SDS011;43150;50.986;18.208;2024-03-29T04:24:11;3.60;;;1.80;;
57303;SDS011;43150;50.986;18.208;2024-03-29T04:26:36;5.30;;;2.10;;
57303;SDS011;43150;50.986;18.208;2024-03-29T04:29:03;3.80;;;1.60;;
57303;SDS011;43150;50.986;18.208;2024-03-29T04:31:29;4.90;;;1.30;;
57303;SDS011;43150;50.986;18.208;2024-03-29T04:33:54;2.60;;;1.30;;
57303;SDS011;43150;50.986;18.208;2024-03-29T04:36:20;2.20;;;1.50;;
57303;SDS011;43150;50.986;18.208;2024-03-29T04:38:45;14.80;;;1.50;;
57303;SDS011;43150;50.986;18.208;2024-03-29T04:41:12;3.80;;;1.60;;
57303;SDS011;43150;50.986;18.208;2024-03-29T04:43:39;1.70;;;1.40;;
57303;SDS011;43150;50.986;18.208;2024-03-29T04:46:09;1.90;;;1.50;;
57303;SDS011;43150;50.986;18.208;2024-03-29T04:48:35;2.20;;;1.40;;
57303;SDS011;43150;50.986;18.208;2024-03-29T04:51:01;2.30;;;2.10;;
57303;SDS011;43150;50.986;18.208;2024-03-29T04:53:26;3.40;;;1.60;;
57303;SDS011;43150;50.986;18.208;2024-03-29T04:55:55;3.80;;;1.60;;
57303;SDS011;43150;50.986;18.208;2024-03-29T04:58:24;3.90;;;1.70;;
57303;SDS011;43150;50.986;18.208;2024-03-29T05:00:49;2.50;;;1.70;;
57303;SDS011;43150;50.986;18.208;2024-03-29T05:03:16;3.40;;;1.70;;
57303;SDS011;43150;50.986;18.208;2024-03-29T05:05:42;2.40;;;1.30;;
57303;SDS011;43150;50.986;18.208;2024-03-29T05:08:07;7.00;;;1.60;;
57303;SDS011;43150;50.986;18.208;2024-03-29T05:10:36;2.10;;;1.20;;
57303;SDS011;43150;50.986;18.208;2024-03-29T05:13:02;1.40;;;1.10;;
57303;SDS011;43150;50.986;18.208;2024-03-29T05:15:28;2.50;;;1.50;;
57303;SDS011;43150;50.986;18.208;2024-03-29T05:17:54;2.20;;;1.50;;
57303;SDS011;43150;50.986;18.208;2024-03-29T05:20:19;3.60;;;2.20;;
57303;SDS011;43150;50.986;18.208;2024-03-29T05:22:45;7.20;;;4.40;;
57303;SDS011;43150;50.986;18.208;2024-03-29T05:25:10;8.30;;;5.40;;
57303;SDS011;43150;50.986;18.208;2024-03-29T05:27:36;12.70;;;10.30;;
57303;SDS011;43150;50.986;18.208;2024-03-29T05:30:02;11.80;;;9.00;;
57303;SDS011;43150;50.986;18.208;2024-03-29T05:32:29;14.10;;;10.60;;
57303;SDS011;43150;50.986;18.208;2024-03-29T05:34:54;13.10;;;9.50;;
57303;SDS011;43150;50.986;18.208;2024-03-29T05:37:20;9.90;;;7.50;;
57303;SDS011;43150;50.986;18.208;2024-03-29T05:39:45;7.90;;;6.10;;
57303;SDS011;43150;50.986;18.208;2024-03-29T05:42:12;7.40;;;4.10;;
57303;SDS011;43150;50.986;18.208;2024-03-29T05:44:38;8.60;;;4.70;;
57303;SDS011;43150;50.986;18.208;2024-03-29T05:47:03;16.40;;;8.60;;
57303;SDS011;43150;50.986;18.208;2024-03-29T05:49:30;26.20;;;14.70;;
57303;SDS011;43150;50.986;18.208;2024-03-29T05:51:56;19.60;;;12.40;;
57303;SDS011;43150;50.986;18.208;2024-03-29T05:54:24;13.10;;;7.70;;
57303;SDS011;43150;50.986;18.208;2024-03-29T05:56:50;6.80;;;3.20;;
57303;SDS011;43150;50.986;18.208;2024-03-29T05:59:15;3.30;;;1.80;;
57303;SDS011;43150;50.986;18.208;2024-03-29T06:01:41;2.90;;;1.40;;
57303;SDS011;43150;50.986;18.208;2024-03-29T06:04:07;2.80;;;1.40;;
57303;SDS011;43150;50.986;18.208;2024-03-29T06:06:41;6.50;;;3.50;;
57303;SDS011;43150;50.986;18.208;2024-03-29T06:09:06;5.90;;;3.10;;
57303;SDS011;43150;50.986;18.208;2024-03-29T06:11:32;9.40;;;4.40;;
57303;SDS011;43150;50.986;18.208;2024-03-29T06:13:57;12.70;;;7.00;;
57303;SDS011;43150;50.986;18.208;2024-03-29T06:16:24;14.10;;;7.40;;
57303;SDS011;43150;50.986;18.208;2024-03-29T06:19:08;12.40;;;7.50;;
57303;SDS011;43150;50.986;18.208;2024-03-29T06:21:34;11.80;;;5.90;;
57303;SDS011;43150;50.986;18.208;2024-03-29T06:24:08;10.30;;;3.80;;
57303;SDS011;43150;50.986;18.208;2024-03-29T06:26:34;7.80;;;4.50;;
57303;SDS011;43150;50.986;18.208;2024-03-29T06:29:01;6.30;;;3.40;;
57303;SDS011;43150;50.986;18.208;2024-03-29T06:31:27;3.70;;;2.10;;
57303;SDS011;43150;50.986;18.208;2024-03-29T06:33:53;9.50;;;3.80;;
57303;SDS011;43150;50.986;18.208;2024-03-29T06:36:19;10.50;;;3.70;;
57303;SDS011;43150;50.986;18.208;2024-03-29T06:38:44;6.20;;;2.50;;
57303;SDS011;43150;50.986;18.208;2024-03-29T06:41:14;12.40;;;4.90;;
57303;SDS011;43150;50.986;18.208;2024-03-29T06:43:42;12.50;;;4.40;;
57303;SDS011;43150;50.986;18.208;2024-03-29T06:46:20;6.20;;;2.20;;
57303;SDS011;43150;50.986;18.208;2024-03-29T06:48:46;5.60;;;2.70;;
57303;SDS011;43150;50.986;18.208;2024-03-29T06:51:11;5.30;;;2.20;;
57303;SDS011;43150;50.986;18.208;2024-03-29T06:53:37;4.10;;;2.20;;
57303;SDS011;43150;50.986;18.208;2024-03-29T06:56:03;3.60;;;1.80;;
57303;SDS011;43150;50.986;18.208;2024-03-29T06:58:31;3.30;;;1.70;;
57303;SDS011;43150;50.986;18.208;2024-03-29T07:00:56;4.80;;;2.10;;
57303;SDS011;43150;50.986;18.208;2024-03-29T07:03:24;3.20;;;1.80;;
57303;SDS011;43150;50.986;18.208;2024-03-29T07:05:49;3.10;;;1.80;;
57303;SDS011;43150;50.986;18.208;2024-03-29T07:08:15;6.70;;;3.50;;
57303;SDS011;43150;50.986;18.208;2024-03-29T07:10:41;13.80;;;5.20;;
57303;SDS011;43150;50.986;18.208;2024-03-29T07:13:07;15.10;;;5.70;;
57303;SDS011;43150;50.986;18.208;2024-03-29T07:15:32;15.30;;;5.70;;
57303;SDS011;43150;50.986;18.208;2024-03-29T07:17:58;20.50;;;7.30;;
57303;SDS011;43150;50.986;18.208;2024-03-29T07:20:25;14.00;;;5.00;;
57303;SDS011;43150;50.986;18.208;2024-03-29T07:22:50;16.40;;;5.60;;
57303;SDS011;43150;50.986;18.208;2024-03-29T07:25:16;18.10;;;6.20;;
57303;SDS011;43150;50.986;18.208;2024-03-29T07:27:41;11.50;;;4.50;;
57303;SDS011;43150;50.986;18.208;2024-03-29T07:30:07;10.20;;;4.10;;
57303;SDS011;43150;50.986;18.208;2024-03-29T07:32:36;6.90;;;2.80;;
57303;SDS011;43150;50.986;18.208;2024-03-29T07:35:02;8.70;;;3.30;;
57303;SDS011;43150;50.986;18.208;2024-03-29T07:37:29;12.40;;;4.80;;
57303;SDS011;43150;50.986;18.208;2024-03-29T07:39:55;9.90;;;4.10;;
57303;SDS011;43150;50.986;18.208;2024-03-29T07:42:20;8.40;;;3.00;;
57303;SDS011;43150;50.986;18.208;2024-03-29T07:44:47;7.30;;;2.30;;
57303;SDS011;43150;50.986;18.208;2024-03-29T07:47:13;8.20;;;3.20;;
57303;SDS011;43150;50.986;18.208;2024-03-29T07:49:40;7.30;;;2.80;;
57303;SDS011;43150;50.986;18.208;2024-03-29T07:52:05;4.00;;;1.70;;
57303;SDS011;43150;50.986;18.208;2024-03-29T07:54:32;2.80;;;1.50;;
57303;SDS011;43150;50.986;18.208;2024-03-29T07:56:58;1.90;;;1.30;;
57303;SDS011;43150;50.986;18.208;2024-03-29T07:59:24;3.10;;;1.40;;
57303;SDS011;43150;50.986;18.208;2024-03-29T08:01:49;2.30;;;1.40;;
57303;SDS011;43150;50.986;18.208;2024-03-29T08:04:17;2.80;;;1.50;;
57303;SDS011;43150;50.986;18.208;2024-03-29T08:06:43;1.90;;;1.20;;
57303;SDS011;43150;50.986;18.208;2024-03-29T08:09:08;2.50;;;1.50;;
57303;SDS011;43150;50.986;18.208;2024-03-29T08:11:35;3.20;;;1.70;;
57303;SDS011;43150;50.986;18.208;2024-03-29T08:14:01;7.60;;;3.20;;
57303;SDS011;43150;50.986;18.208;2024-03-29T08:16:27;10.10;;;3.80;;
57303;SDS011;43150;50.986;18.208;2024-03-29T08:18:52;12.10;;;5.00;;
57303;SDS011;43150;50.986;18.208;2024-03-29T08:21:18;11.30;;;4.70;;
57303;SDS011;43150;50.986;18.208;2024-03-29T08:23:44;9.80;;;4.10;;
57303;SDS011;43150;50.986;18.208;2024-03-29T08:26:11;9.90;;;4.90;;
57303;SDS011;43150;50.986;18.208;2024-03-29T08:28:37;9.80;;;5.90;;
57303;SDS011;43150;50.986;18.208;2024-03-29T08:31:04;4.00;;;2.50;;
57303;SDS011;43150;50.986;18.208;2024-03-29T08:33:30;4.20;;;2.30;;
57303;SDS011;43150;50.986;18.208;2024-03-29T08:35:56;3.40;;;1.40;;
57303;SDS011;43150;50.986;18.208;2024-03-29T08:38:22;5.10;;;2.80;;
57303;SDS011;43150;50.986;18.208;2024-03-29T08:40:48;3.70;;;1.70;;
57303;SDS011;43150;50.986;18.208;2024-03-29T08:43:15;3.60;;;1.60;;
57303;SDS011;43150;50.986;18.208;2024-03-29T08:45:46;3.50;;;1.50;;
57303;SDS011;43150;50.986;18.208;2024-03-29T08:48:12;2.40;;;1.30;;
57303;SDS011;43150;50.986;18.208;2024-03-29T08:50:37;2.80;;;1.50;;
57303;SDS011;43150;50.986;18.208;2024-03-29T08:53:03;3.80;;;1.40;;
57303;SDS011;43150;50.986;18.208;2024-03-29T08:55:32;2.20;;;1.10;;
57303;SDS011;43150;50.986;18.208;2024-03-29T08:57:58;3.80;;;1.00;;
57303;SDS011;43150;50.986;18.208;2024-03-29T09:00:24;2.60;;;1.40;;
57303;SDS011;43150;50.986;18.208;2024-03-29T09:02:50;6.30;;;2.30;;
57303;SDS011;43150;50.986;18.208;2024-03-29T09:05:16;8.80;;;3.10;;
57303;SDS011;43150;50.986;18.208;2024-03-29T09:07:42;4.20;;;1.30;;
57303;SDS011;43150;50.986;18.208;2024-03-29T09:10:07;1.80;;;1.20;;
57303;SDS011;43150;50.986;18.208;2024-03-29T09:12:33;2.40;;;1.40;;
57303;SDS011;43150;50.986;18.208;2024-03-29T09:15:04;9.30;;;3.70;;
57303;SDS011;43150;50.986;18.208;2024-03-29T09:17:34;5.20;;;1.70;;
57303;SDS011;43150;50.986;18.208;2024-03-29T09:20:00;4.90;;;1.30;;
57303;SDS011;43150;50.986;18.208;2024-03-29T09:22:26;1.60;;;1.00;;
57303;SDS011;43150;50.986;18.208;2024-03-29T09:24:52;1.30;;;0.90;;
57303;SDS011;43150;50.986;18.208;2024-03-29T09:27:17;4.20;;;0.80;;
57303;SDS011;43150;50.986;18.208;2024-03-29T09:29:43;2.70;;;0.80;;
57303;SDS011;43150;50.986;18.208;2024-03-29T09:32:12;3.10;;;0.60;;
57303;SDS011;43150;50.986;18.208;2024-03-29T09:34:40;1.40;;;0.70;;
57303;SDS011;43150;50.986;18.208;2024-03-29T09:37:05;2.20;;;0.70;;
57303;SDS011;43150;50.986;18.208;2024-03-29T09:39:31;2.50;;;0.70;;
57303;SDS011;43150;50.986;18.208;2024-03-29T09:41:56;1.40;;;0.90;;
57303;SDS011;43150;50.986;18.208;2024-03-29T09:44:24;2.20;;;0.70;;
57303;SDS011;43150;50.986;18.208;2024-03-29T09:46:54;1.40;;;0.70;;
57303;SDS011;43150;50.986;18.208;2024-03-29T09:49:19;1.80;;;0.70;;
57303;SDS011;43150;50.986;18.208;2024-03-29T09:51:45;1.40;;;0.50;;
57303;SDS011;43150;50.986;18.208;2024-03-29T09:54:12;1.80;;;0.60;;
57303;SDS011;43150;50.986;18.208;2024-03-29T09:56:41;1.30;;;0.70;;
57303;SDS011;43150;50.986;18.208;2024-03-29T09:59:07;2.50;;;0.90;;
57303;SDS011;43150;50.986;18.208;2024-03-29T10:01:34;5.10;;;0.90;;
57303;SDS011;43150;50.986;18.208;2024-03-29T10:03:59;4.00;;;0.90;;
57303;SDS011;43150;50.986;18.208;2024-03-29T10:06:26;3.70;;;0.70;;
57303;SDS011;43150;50.986;18.208;2024-03-29T10:08:53;1.30;;;0.60;;
57303;SDS011;43150;50.986;18.208;2024-03-29T10:11:23;1.70;;;0.70;;
57303;SDS011;43150;50.986;18.208;2024-03-29T10:13:50;3.00;;;0.80;;
57303;SDS011;43150;50.986;18.208;2024-03-29T10:16:18;2.00;;;1.00;;
57303;SDS011;43150;50.986;18.208;2024-03-29T10:18:47;1.70;;;0.60;;
57303;SDS011;43150;50.986;18.208;2024-03-29T10:21:13;3.00;;;0.70;;
57303;SDS011;43150;50.986;18.208;2024-03-29T10:23:38;0.80;;;0.50;;
57303;SDS011;43150;50.986;18.208;2024-03-29T10:26:05;0.60;;;0.30;;
57303;SDS011;43150;50.986;18.208;2024-03-29T10:28:32;1.00;;;0.40;;
57303;SDS011;43150;50.986;18.208;2024-03-29T10:31:04;2.20;;;0.70;;
57303;SDS011;43150;50.986;18.208;2024-03-29T10:33:30;3.90;;;0.80;;
57303;SDS011;43150;50.986;18.208;2024-03-29T10:35:56;1.90;;;0.90;;
57303;SDS011;43150;50.986;18.208;2024-03-29T10:38:24;1.40;;;0.80;;
57303;SDS011;43150;50.986;18.208;2024-03-29T10:40:50;3.90;;;0.80;;
57303;SDS011;43150;50.986;18.208;2024-03-29T10:43:17;1.00;;;0.50;;
57303;SDS011;43150;50.986;18.208;2024-03-29T10:45:45;1.80;;;0.60;;
57303;SDS011;43150;50.986;18.208;2024-03-29T10:48:11;5.30;;;2.00;;
57303;SDS011;43150;50.986;18.208;2024-03-29T10:50:41;1.70;;;0.60;;
57303;SDS011;43150;50.986;18.208;2024-03-29T10:53:08;1.20;;;0.40;;
57303;SDS011;43150;50.986;18.208;2024-03-29T10:55:34;1.60;;;0.50;;
57303;SDS011;43150;50.986;18.208;2024-03-29T10:58:00;1.90;;;0.50;;
57303;SDS011;43150;50.986;18.208;2024-03-29T11:00:26;1.30;;;0.70;;
57303;SDS011;43150;50.986;18.208;2024-03-29T11:05:38;1.20;;;0.50;;
57303;SDS011;43150;50.986;18.208;2024-03-29T11:08:06;2.40;;;0.50;;
57303;SDS011;43150;50.986;18.208;2024-03-29T11:15:33;0.80;;;0.50;;
57303;SDS011;43150;50.986;18.208;2024-03-29T11:18:00;3.90;;;0.50;;
57303;SDS011;43150;50.986;18.208;2024-03-29T11:20:26;1.10;;;0.80;;
57303;SDS011;43150;50.986;18.208;2024-03-29T11:23:03;2.80;;;0.60;;
57303;SDS011;43150;50.986;18.208;2024-03-29T11:28:31;4.60;;;1.70;;
57303;SDS011;43150;50.986;18.208;2024-03-29T11:33:25;9.70;;;1.70;;
57303;SDS011;43150;50.986;18.208;2024-03-29T11:35:51;1.40;;;0.60;;
57303;SDS011;43150;50.986;18.208;2024-03-29T11:38:17;1.30;;;0.60;;
57303;SDS011;43150;50.986;18.208;2024-03-29T11:40:52;0.80;;;0.50;;
57303;SDS011;43150;50.986;18.208;2024-03-29T11:43:18;1.50;;;1.00;;
57303;SDS011;43150;50.986;18.208;2024-03-29T11:45:44;1.70;;;0.60;;
57303;SDS011;43150;50.986;18.208;2024-03-29T11:48:10;1.80;;;0.70;;
57303;SDS011;43150;50.986;18.208;2024-03-29T11:50:37;0.90;;;0.60;;
57303;SDS011;43150;50.986;18.208;2024-03-29T11:53:03;2.60;;;0.80;;
57303;SDS011;43150;50.986;18.208;2024-03-29T11:55:30;1.90;;;1.00;;
57303;SDS011;43150;50.986;18.208;2024-03-29T11:57:56;2.50;;;0.90;;
57303;SDS011;43150;50.986;18.208;2024-03-29T12:00:21;0.70;;;0.60;;
57303;SDS011;43150;50.986;18.208;2024-03-29T12:02:51;1.80;;;0.60;;
57303;SDS011;43150;50.986;18.208;2024-03-29T12:05:17;1.20;;;0.40;;
57303;SDS011;43150;50.986;18.208;2024-03-29T12:07:45;1.20;;;0.50;;
57303;SDS011;43150;50.986;18.208;2024-03-29T12:10:11;3.10;;;0.60;;
57303;SDS011;43150;50.986;18.208;2024-03-29T12:12:37;1.20;;;0.50;;
57303;SDS011;43150;50.986;18.208;2024-03-29T12:15:07;1.40;;;0.80;;
57303;SDS011;43150;50.986;18.208;2024-03-29T12:17:33;1.20;;;0.50;;
57303;SDS011;43150;50.986;18.208;2024-03-29T12:19:59;1.10;;;0.60;;
57303;SDS011;43150;50.986;18.208;2024-03-29T12:22:33;0.80;;;0.50;;
57303;SDS011;43150;50.986;18.208;2024-03-29T12:24:59;2.80;;;0.70;;
57303;SDS011;43150;50.986;18.208;2024-03-29T12:27:24;0.90;;;0.60;;
57303;SDS011;43150;50.986;18.208;2024-03-29T12:29:51;1.70;;;0.70;;
57303;SDS011;43150;50.986;18.208;2024-03-29T12:32:19;3.00;;;0.70;;
57303;SDS011;43150;50.986;18.208;2024-03-29T12:34:45;2.70;;;0.80;;
57303;SDS011;43150;50.986;18.208;2024-03-29T12:37:12;1.40;;;0.60;;
57303;SDS011;43150;50.986;18.208;2024-03-29T12:39:40;0.70;;;0.50;;
57303;SDS011;43150;50.986;18.208;2024-03-29T12:42:07;2.40;;;0.70;;
57303;SDS011;43150;50.986;18.208;2024-03-29T12:44:32;2.00;;;0.80;;
57303;SDS011;43150;50.986;18.208;2024-03-29T12:47:02;1.60;;;0.50;;
57303;SDS011;43150;50.986;18.208;2024-03-29T12:49:27;1.40;;;0.50;;
57303;SDS011;43150;50.986;18.208;2024-03-29T12:51:55;3.20;;;0.70;;
57303;SDS011;43150;50.986;18.208;2024-03-29T12:54:21;1.20;;;0.50;;
57303;SDS011;43150;50.986;18.208;2024-03-29T12:56:46;0.60;;;0.60;;
57303;SDS011;43150;50.986;18.208;2024-03-29T12:59:12;0.70;;;0.40;;
57303;SDS011;43150;50.986;18.208;2024-03-29T13:01:37;1.60;;;0.50;;
57303;SDS011;43150;50.986;18.208;2024-03-29T13:04:04;1.10;;;0.70;;
57303;SDS011;43150;50.986;18.208;2024-03-29T13:06:30;1.40;;;0.40;;
57303;SDS011;43150;50.986;18.208;2024-03-29T13:08:56;1.70;;;0.60;;
57303;SDS011;43150;50.986;18.208;2024-03-29T13:11:21;0.60;;;0.40;;
57303;SDS011;43150;50.986;18.208;2024-03-29T13:13:47;0.90;;;0.30;;
57303;SDS011;43150;50.986;18.208;2024-03-29T13:16:13;1.50;;;0.70;;
57303;SDS011;43150;50.986;18.208;2024-03-29T13:18:39;1.90;;;0.60;;
57303;SDS011;43150;50.986;18.208;2024-03-29T13:21:05;0.90;;;0.40;;
57303;SDS011;43150;50.986;18.208;2024-03-29T13:23:30;0.70;;;0.50;;
57303;SDS011;43150;50.986;18.208;2024-03-29T13:25:57;0.80;;;0.40;;
57303;SDS011;43150;50.986;18.208;2024-03-29T13:28:24;1.00;;;0.60;;
57303;SDS011;43150;50.986;18.208;2024-03-29T13:30:50;2.90;;;0.70;;
57303;SDS011;43150;50.986;18.208;2024-03-29T13:33:17;3.50;;;0.70;;
57303;SDS011;43150;50.986;18.208;2024-03-29T13:35:43;1.90;;;0.50;;
57303;SDS011;43150;50.986;18.208;2024-03-29T13:38:09;0.90;;;0.50;;
57303;SDS011;43150;50.986;18.208;2024-03-29T13:40:35;2.90;;;0.70;;
57303;SDS011;43150;50.986;18.208;2024-03-29T13:43:06;2.40;;;0.60;;
57303;SDS011;43150;50.986;18.208;2024-03-29T13:45:32;1.20;;;0.70;;
57303;SDS011;43150;50.986;18.208;2024-03-29T13:47:58;2.30;;;1.00;;
57303;SDS011;43150;50.986;18.208;2024-03-29T13:50:23;1.40;;;0.80;;
57303;SDS011;43150;50.986;18.208;2024-03-29T13:52:49;2.80;;;0.90;;
57303;SDS011;43150;50.986;18.208;2024-03-29T13:55:15;1.10;;;0.50;;
57303;SDS011;43150;50.986;18.208;2024-03-29T13:57:41;2.60;;;0.80;;
57303;SDS011;43150;50.986;18.208;2024-03-29T14:00:06;2.50;;;0.80;;
57303;SDS011;43150;50.986;18.208;2024-03-29T14:02:32;2.80;;;0.90;;
57303;SDS011;43150;50.986;18.208;2024-03-29T14:04:58;2.30;;;0.70;;
57303;SDS011;43150;50.986;18.208;2024-03-29T14:07:24;2.50;;;0.80;;
57303;SDS011;43150;50.986;18.208;2024-03-29T14:09:50;3.20;;;0.70;;
57303;SDS011;43150;50.986;18.208;2024-03-29T14:12:16;3.00;;;0.70;;
57303;SDS011;43150;50.986;18.208;2024-03-29T14:14:43;3.20;;;1.30;;
57303;SDS011;43150;50.986;18.208;2024-03-29T14:17:12;3.10;;;1.00;;
57303;SDS011;43150;50.986;18.208;2024-03-29T14:19:38;1.70;;;0.90;;
57303;SDS011;43150;50.986;18.208;2024-03-29T14:22:03;2.40;;;1.00;;
57303;SDS011;43150;50.986;18.208;2024-03-29T14:24:29;2.00;;;0.60;;
57303;SDS011;43150;50.986;18.208;2024-03-29T14:27:00;3.10;;;1.40;;
57303;SDS011;43150;50.986;18.208;2024-03-29T14:29:26;2.40;;;1.10;;
57303;SDS011;43150;50.986;18.208;2024-03-29T14:31:52;3.10;;;1.10;;
57303;SDS011;43150;50.986;18.208;2024-03-29T14:34:20;5.10;;;1.30;;
57303;SDS011;43150;50.986;18.208;2024-03-29T14:36:45;2.80;;;1.40;;
57303;SDS011;43150;50.986;18.208;2024-03-29T14:39:11;1.60;;;0.90;;
57303;SDS011;43150;50.986;18.208;2024-03-29T14:41:39;2.00;;;0.70;;